createdAt,value
2019-04-16T00:00:50.493Z,0
2019-04-16T00:01:52.642Z,0
2019-04-16T00:02:48.458Z,0
2019-04-16T00:03:47.955Z,0
2019-04-16T00:04:47.850Z,0
2019-04-16T00:05:48.154Z,0
2019-04-16T00:06:47.910Z,0
2019-04-16T00:07:48.268Z,0
2019-04-16T00:08:47.863Z,0
2019-04-16T00:09:59.868Z,0
2019-04-16T00:10:47.892Z,0
2019-04-16T00:11:48.130Z,0
2019-04-16T00:12:47.915Z,0
2019-04-16T00:13:47.876Z,0
2019-04-16T00:14:47.919Z,0
2019-04-16T00:15:51.617Z,0
2019-04-16T00:16:52.254Z,0
2019-04-16T00:17:52.545Z,0
2019-04-16T00:19:07.248Z,0
2019-04-16T00:19:47.887Z,0
2019-04-16T00:20:48.538Z,0
2019-04-16T00:21:51.207Z,0
2019-04-16T00:22:47.910Z,0
2019-04-16T00:23:49.516Z,0
2019-04-16T00:24:47.987Z,0
2019-04-16T00:25:47.928Z,0
2019-04-16T00:26:47.918Z,0
2019-04-16T00:27:47.981Z,0
2019-04-16T00:28:47.929Z,0
2019-04-16T00:29:50.125Z,0
2019-04-16T00:30:47.924Z,0
2019-04-16T00:31:48.198Z,0
2019-04-16T00:32:50.555Z,0
2019-04-16T00:33:52.798Z,0
2019-04-16T00:34:52.501Z,0
2019-04-16T00:35:51.789Z,0
2019-04-16T00:36:51.409Z,0
2019-04-16T00:37:51.334Z,0
2019-04-16T00:38:56.644Z,0
2019-04-16T00:39:59.959Z,0
2019-04-16T00:40:48.318Z,0
2019-04-16T00:41:47.935Z,0
2019-04-16T00:42:47.881Z,0
2019-04-16T00:43:49.458Z,0
2019-04-16T00:44:47.912Z,0
2019-04-16T00:45:47.880Z,0
2019-04-16T00:46:48.174Z,0
2019-04-16T00:47:53.630Z,0
2019-04-16T00:48:47.895Z,0
2019-04-16T00:49:48.580Z,0
2019-04-16T00:50:47.893Z,0
2019-04-16T00:51:47.938Z,0
2019-04-16T00:52:48.536Z,0
2019-04-16T00:53:50.042Z,0
2019-04-16T00:54:52.408Z,0
2019-04-16T00:55:52.637Z,0
2019-04-16T00:56:51.593Z,0
2019-04-16T00:57:51.257Z,0
2019-04-16T00:58:49.308Z,0
2019-04-16T00:59:47.975Z,0
2019-04-16T01:00:47.895Z,0
2019-04-16T01:01:47.925Z,0
2019-04-16T01:02:49.634Z,0
2019-04-16T01:03:48.081Z,0
2019-04-16T01:04:48.274Z,0
2019-04-16T01:05:47.946Z,0
2019-04-16T01:06:50.733Z,0
2019-04-16T01:07:47.885Z,0
2019-04-16T01:09:01.975Z,0
2019-04-16T01:09:57.663Z,0
2019-04-16T01:10:48.198Z,0
2019-04-16T01:11:51.114Z,0
2019-04-16T01:12:47.929Z,0
2019-04-16T01:13:47.950Z,0
2019-04-16T01:14:47.935Z,0
2019-04-16T01:15:47.904Z,0
2019-04-16T01:16:48.335Z,0
2019-04-16T01:17:47.938Z,0
2019-04-16T01:18:49.663Z,0
2019-04-16T01:19:51.222Z,0
2019-04-16T01:20:50.846Z,0
2019-04-16T01:21:52.493Z,0
2019-04-16T01:22:52.308Z,0
2019-04-16T01:23:51.299Z,0
2019-04-16T01:24:51.331Z,0
2019-04-16T01:25:48.006Z,0
2019-04-16T01:26:48.020Z,0
2019-04-16T01:27:47.986Z,0
2019-04-16T01:28:48.258Z,0
2019-04-16T01:29:48.060Z,0
2019-04-16T01:30:47.925Z,0
2019-04-16T01:31:49.673Z,0
2019-04-16T01:32:51.188Z,0
2019-04-16T01:33:51.564Z,0
2019-04-16T01:34:49.873Z,0
2019-04-16T01:35:51.011Z,0
2019-04-16T01:36:47.965Z,0
2019-04-16T01:37:48.073Z,0
2019-04-16T01:38:47.976Z,0
2019-04-16T01:40:01.003Z,0
2019-04-16T01:40:52.548Z,0
2019-04-16T01:41:50.267Z,0
2019-04-16T01:42:48.023Z,0
2019-04-16T01:43:47.951Z,0
2019-04-16T01:44:47.966Z,0
2019-04-16T01:45:48.185Z,0
2019-04-16T01:46:48.314Z,0
2019-04-16T01:47:47.986Z,0
2019-04-16T01:48:50.026Z,0
2019-04-16T01:49:52.142Z,0
2019-04-16T01:50:51.468Z,0
2019-04-16T01:51:52.403Z,0
2019-04-16T01:52:52.346Z,0
2019-04-16T01:53:49.364Z,0
2019-04-16T01:54:48.036Z,0
2019-04-16T01:55:50.296Z,0
2019-04-16T01:56:47.950Z,0
2019-04-16T01:57:47.954Z,0
2019-04-16T01:58:48.325Z,0
2019-04-16T01:59:47.950Z,0
2019-04-16T02:00:49.741Z,0
2019-04-16T02:01:50.912Z,0
2019-04-16T02:02:51.335Z,0
2019-04-16T02:03:51.554Z,0
2019-04-16T02:04:51.596Z,0
2019-04-16T02:05:47.971Z,0
2019-04-16T02:06:48.034Z,0
2019-04-16T02:07:47.961Z,0
2019-04-16T02:08:48.022Z,0
2019-04-16T02:09:58.837Z,0
2019-04-16T02:10:49.643Z,0
2019-04-16T02:11:51.661Z,0
2019-04-16T02:12:51.528Z,0
2019-04-16T02:13:51.205Z,0
2019-04-16T02:14:52.624Z,0
2019-04-16T02:15:50.537Z,0
2019-04-16T02:16:48.426Z,0
2019-04-16T02:17:48.012Z,0
2019-04-16T02:18:48.000Z,0
2019-04-16T02:19:47.988Z,0
2019-04-16T02:20:49.979Z,0
2019-04-16T02:21:51.559Z,0
2019-04-16T02:22:52.842Z,0
2019-04-16T02:23:52.802Z,0
2019-04-16T02:24:50.665Z,0
2019-04-16T02:25:48.397Z,0
2019-04-16T02:26:48.060Z,0
2019-04-16T02:27:48.058Z,0
2019-04-16T02:28:48.089Z,0
2019-04-16T02:29:48.175Z,0
2019-04-16T02:30:50.096Z,0
2019-04-16T02:31:53.513Z,0
2019-04-16T02:32:48.053Z,0
2019-04-16T02:33:48.062Z,0
2019-04-16T02:34:48.377Z,0
2019-04-16T02:35:48.090Z,0
2019-04-16T02:36:48.017Z,0
2019-04-16T02:37:48.241Z,0
2019-04-16T02:38:58.782Z,0
2019-04-16T02:40:03.473Z,0
2019-04-16T02:40:54.353Z,0
2019-04-16T02:41:48.070Z,0
2019-04-16T02:42:48.144Z,0
2019-04-16T02:43:51.664Z,0
2019-04-16T02:44:54.168Z,0
2019-04-16T02:45:48.075Z,0
2019-04-16T02:46:48.593Z,0
2019-04-16T02:47:52.612Z,0
2019-04-16T02:48:55.564Z,0
2019-04-16T02:49:48.080Z,0
2019-04-16T02:50:48.022Z,0
2019-04-16T02:51:52.002Z,0
2019-04-16T02:52:53.688Z,0
2019-04-16T02:53:48.082Z,0
2019-04-16T02:54:48.077Z,0
2019-04-16T02:55:53.355Z,0
2019-04-16T02:56:54.537Z,0
2019-04-16T02:57:48.215Z,0
2019-04-16T02:58:48.437Z,0
2019-04-16T02:59:53.902Z,0
2019-04-16T03:00:52.083Z,0
2019-04-16T03:01:49.316Z,0
2019-04-16T03:02:48.143Z,0
2019-04-16T03:03:48.083Z,0
2019-04-16T03:04:48.668Z,0
2019-04-16T03:05:48.120Z,0
2019-04-16T03:06:48.148Z,0
2019-04-16T03:07:48.117Z,0
2019-04-16T03:08:48.082Z,0
2019-04-16T03:10:06.617Z,0
2019-04-16T03:10:52.016Z,0
2019-04-16T03:11:53.270Z,0
2019-04-16T03:12:51.787Z,0
2019-04-16T03:13:49.011Z,0
2019-04-16T03:14:48.170Z,0
2019-04-16T03:15:48.467Z,0
2019-04-16T03:16:49.211Z,0
2019-04-16T03:17:52.765Z,0
2019-04-16T03:18:52.442Z,0
2019-04-16T03:19:53.820Z,0
2019-04-16T03:20:48.152Z,0
2019-04-16T03:21:48.569Z,0
2019-04-16T03:22:48.127Z,0
2019-04-16T03:23:48.316Z,0
2019-04-16T03:24:50.635Z,0
2019-04-16T03:25:51.747Z,0
2019-04-16T03:26:52.594Z,0
2019-04-16T03:27:48.482Z,0
2019-04-16T03:28:48.162Z,0
2019-04-16T03:29:48.174Z,0
2019-04-16T03:30:53.009Z,0
2019-04-16T03:31:48.133Z,0
2019-04-16T03:32:48.071Z,0
2019-04-16T03:33:57.027Z,0
2019-04-16T03:34:50.456Z,0
2019-04-16T03:35:48.153Z,0
2019-04-16T03:36:48.134Z,0
2019-04-16T03:37:48.189Z,0
2019-04-16T03:38:52.394Z,0
2019-04-16T03:39:59.746Z,0
2019-04-16T03:40:48.148Z,0
2019-04-16T03:41:48.233Z,0
2019-04-16T03:42:48.385Z,0
2019-04-16T03:43:48.123Z,0
2019-04-16T03:44:48.110Z,0
2019-04-16T03:45:51.329Z,0
2019-04-16T03:46:54.162Z,0
2019-04-16T03:47:53.741Z,0
2019-04-16T03:50:55.605Z,0
2019-04-16T03:51:11.184Z,0
2019-04-16T03:52:10.640Z,0
2019-04-16T03:53:07.801Z,0
2019-04-16T03:54:10.145Z,0
2019-04-16T03:55:06.628Z,0
2019-04-16T03:56:08.810Z,0
2019-04-16T03:57:10.250Z,0
2019-04-16T03:58:10.669Z,0
2019-04-16T03:59:10.451Z,0
2019-04-16T04:00:14.258Z,0
2019-04-16T04:01:06.616Z,0
2019-04-16T04:02:06.679Z,0
2019-04-16T04:03:07.048Z,0
2019-04-16T04:04:08.059Z,0
2019-04-16T04:05:14.666Z,0
2019-04-16T04:06:10.515Z,0
2019-04-16T04:07:08.688Z,0
2019-04-16T04:08:06.688Z,0
2019-04-16T04:09:06.992Z,0
2019-04-16T04:10:09.342Z,0
2019-04-16T04:11:12.112Z,0
2019-04-16T04:12:06.629Z,0
2019-04-16T04:13:10.281Z,0
2019-04-16T04:14:06.728Z,0
2019-04-16T04:15:07.057Z,0
2019-04-16T04:16:11.382Z,0
2019-04-16T04:17:10.711Z,0
2019-04-16T04:18:07.603Z,0
2019-04-16T04:19:06.737Z,0
2019-04-16T04:20:06.643Z,0
2019-04-16T04:21:07.151Z,0
2019-04-16T04:22:06.648Z,0
2019-04-16T04:23:08.052Z,0
2019-04-16T04:24:10.482Z,0
2019-04-16T04:25:20.070Z,0
2019-04-16T04:26:10.716Z,0
2019-04-16T04:27:06.891Z,0
2019-04-16T04:28:06.996Z,0
2019-04-16T04:29:08.911Z,0
2019-04-16T04:30:07.981Z,0
2019-04-16T04:31:09.704Z,0
2019-04-16T04:32:11.082Z,0
2019-04-16T04:33:10.424Z,0
2019-04-16T04:34:09.603Z,0
2019-04-16T04:35:07.006Z,0
2019-04-16T04:36:06.765Z,0
2019-04-16T04:37:09.477Z,0
2019-04-16T04:38:10.296Z,0
2019-04-16T04:39:15.180Z,0
2019-04-16T04:40:06.786Z,0
2019-04-16T04:41:10.718Z,0
2019-04-16T04:42:07.734Z,0
2019-04-16T04:43:09.488Z,0
2019-04-16T04:44:12.021Z,0
2019-04-16T04:45:11.270Z,0
2019-04-16T04:46:12.166Z,0
2019-04-16T04:47:06.707Z,0
2019-04-16T04:50:14.810Z,0
2019-04-16T04:50:25.901Z,0
2019-04-16T04:51:26.148Z,0
2019-04-16T04:52:27.344Z,0
2019-04-16T04:53:29.800Z,0
2019-04-16T04:54:29.868Z,0
2019-04-16T04:55:30.962Z,0
2019-04-16T04:56:33.106Z,0
2019-04-16T04:57:28.366Z,0
2019-04-16T04:58:25.887Z,0
2019-04-16T04:59:25.951Z,0
2019-04-16T05:00:25.941Z,0
2019-04-16T05:01:25.923Z,0
2019-04-16T05:02:26.420Z,5
2019-04-16T05:03:27.558Z,5
2019-04-16T05:04:30.023Z,5
2019-04-16T05:05:31.095Z,5
2019-04-16T05:06:29.690Z,5
2019-04-16T05:07:30.738Z,5
2019-04-16T05:08:28.613Z,5
2019-04-16T05:09:29.203Z,5
2019-04-16T05:10:25.962Z,5
2019-04-16T05:11:27.646Z,5
2019-04-16T05:12:31.078Z,5
2019-04-16T05:13:30.042Z,5
2019-04-16T05:14:28.533Z,5
2019-04-16T05:15:31.547Z,5
2019-04-16T05:16:26.046Z,5
2019-04-16T05:17:25.866Z,5
2019-04-16T05:18:25.834Z,5
2019-04-16T05:19:26.778Z,5
2019-04-16T05:20:29.797Z,5
2019-04-16T05:21:29.682Z,5
2019-04-16T05:22:29.322Z,5
2019-04-16T05:23:30.211Z,5
2019-04-16T05:24:28.821Z,5
2019-04-16T05:25:25.881Z,5
2019-04-16T05:26:25.928Z,5
2019-04-16T05:27:29.141Z,5
2019-04-16T05:28:25.888Z,5
2019-04-16T05:29:28.503Z,5
2019-04-16T05:30:31.154Z,10
2019-04-16T05:31:31.165Z,10
2019-04-16T05:32:32.691Z,10
2019-04-16T05:33:26.159Z,10
2019-04-16T05:34:28.843Z,10
2019-04-16T05:35:25.908Z,10
2019-04-16T05:36:29.208Z,10
2019-04-16T05:37:29.665Z,10
2019-04-16T05:38:31.005Z,10
2019-04-16T05:39:29.947Z,10
2019-04-16T05:40:27.551Z,10
2019-04-16T05:41:31.531Z,10
2019-04-16T05:42:30.223Z,15
2019-04-16T05:43:32.755Z,25
2019-04-16T05:44:26.469Z,45
2019-04-16T05:45:26.474Z,40
2019-04-16T05:46:25.973Z,35
2019-04-16T05:47:28.742Z,80
2019-04-16T05:48:28.911Z,125
2019-04-16T05:49:30.253Z,140
2019-04-16T05:50:31.491Z,140
2019-04-16T05:51:28.239Z,140
2019-04-16T05:52:26.055Z,145
2019-04-16T05:53:25.909Z,155
2019-04-16T05:54:26.170Z,155
2019-04-16T05:55:28.467Z,160
2019-04-16T05:56:31.528Z,155
2019-04-16T05:57:31.078Z,160
2019-04-16T05:58:27.449Z,155
2019-04-16T05:59:26.079Z,135
2019-04-16T06:00:26.225Z,125
2019-04-16T06:01:26.115Z,145
2019-04-16T06:02:30.436Z,165
2019-04-16T06:03:31.348Z,175
2019-04-16T06:04:29.740Z,190
2019-04-16T06:05:30.571Z,205
2019-04-16T06:06:28.511Z,205
2019-04-16T06:07:26.251Z,200
2019-04-16T06:08:26.671Z,205
2019-04-16T06:09:25.940Z,200
2019-04-16T06:10:29.277Z,195
2019-04-16T06:11:43.636Z,205
2019-04-16T06:12:25.975Z,205
2019-04-16T06:13:25.979Z,200
2019-04-16T06:14:31.432Z,180
2019-04-16T06:15:30.543Z,165
2019-04-16T06:16:31.066Z,150
2019-04-16T06:17:31.705Z,145
2019-04-16T06:18:28.838Z,155
2019-04-16T06:19:26.078Z,150
2019-04-16T06:20:30.081Z,160
2019-04-16T06:21:30.657Z,170
2019-04-16T06:22:31.443Z,170
2019-04-16T06:23:26.070Z,175
2019-04-16T06:24:26.052Z,185
2019-04-16T06:25:26.387Z,185
2019-04-16T06:26:27.517Z,185
2019-04-16T06:27:26.020Z,185
2019-04-16T06:28:25.955Z,180
2019-04-16T06:30:35.716Z,175
2019-04-16T06:30:46.838Z,175
2019-04-16T06:31:50.671Z,175
2019-04-16T06:32:46.736Z,170
2019-04-16T06:33:46.719Z,170
2019-04-16T06:34:46.726Z,170
2019-04-16T06:35:53.933Z,165
2019-04-16T06:36:46.732Z,165
2019-04-16T06:37:48.419Z,160
2019-04-16T06:38:46.767Z,160
2019-04-16T06:40:01.834Z,155
2019-04-16T06:40:47.064Z,150
2019-04-16T06:41:58.005Z,145
2019-04-16T06:42:51.408Z,140
2019-04-16T06:43:47.107Z,135
2019-04-16T06:44:46.741Z,130
2019-04-16T06:45:48.182Z,125
2019-04-16T06:46:50.152Z,125
2019-04-16T06:47:49.790Z,120
2019-04-16T06:48:50.846Z,120
2019-04-16T06:49:56.069Z,120
2019-04-16T06:50:51.106Z,120
2019-04-16T06:51:51.476Z,120
2019-04-16T06:52:51.263Z,120
2019-04-16T06:53:46.782Z,120
2019-04-16T06:54:48.301Z,120
2019-04-16T06:55:48.268Z,120
2019-04-16T06:56:53.048Z,120
2019-04-16T06:59:59.423Z,120
2019-04-16T07:00:15.353Z,120
2019-04-16T07:01:13.723Z,120
2019-04-16T07:02:15.266Z,120
2019-04-16T07:03:13.239Z,120
2019-04-16T07:04:12.165Z,120
2019-04-16T07:05:12.338Z,120
2019-04-16T07:06:14.741Z,120
2019-04-16T07:07:15.810Z,125
2019-04-16T07:08:10.633Z,125
2019-04-16T07:09:10.909Z,125
2019-04-16T07:10:11.298Z,130
2019-04-16T07:11:10.848Z,130
2019-04-16T07:12:10.976Z,130
2019-04-16T07:13:15.577Z,140
2019-04-16T07:14:11.465Z,135
2019-04-16T07:15:10.674Z,140
2019-04-16T07:16:11.046Z,140
2019-04-16T07:17:11.380Z,145
2019-04-16T07:18:15.733Z,145
2019-04-16T07:19:16.941Z,150
2019-04-16T07:20:16.077Z,150
2019-04-16T07:21:10.733Z,155
2019-04-16T07:22:11.385Z,155
2019-04-16T07:23:10.743Z,160
2019-04-16T07:24:11.524Z,160
2019-04-16T07:25:15.622Z,165
2019-04-16T07:26:19.384Z,165
2019-04-16T07:27:10.986Z,165
2019-04-16T07:28:10.884Z,170
2019-04-16T07:29:11.040Z,170
2019-04-16T07:30:21.216Z,175
2019-04-16T07:31:25.758Z,175
2019-04-16T07:32:12.151Z,175
2019-04-16T07:33:11.711Z,175
2019-04-16T07:34:10.759Z,175
2019-04-16T07:35:11.411Z,180
2019-04-16T07:36:10.952Z,180
2019-04-16T07:37:12.296Z,180
2019-04-16T07:38:19.286Z,180
2019-04-16T07:39:28.614Z,180
2019-04-16T07:40:17.000Z,180
2019-04-16T07:41:19.623Z,180
2019-04-16T07:42:31.569Z,175
2019-04-16T07:43:11.218Z,175
2019-04-16T07:44:18.984Z,180
2019-04-16T07:51:39.398Z,165
2019-04-16T07:51:50.497Z,165
2019-04-16T07:52:53.001Z,165
2019-04-16T07:53:55.138Z,160
2019-04-16T07:54:50.723Z,160
2019-04-16T07:55:50.473Z,155
2019-04-16T07:56:50.481Z,155
2019-04-16T07:57:50.459Z,155
2019-04-16T07:58:50.436Z,150
2019-04-16T07:59:50.430Z,145
2019-04-16T08:00:52.128Z,150
2019-04-16T08:01:55.152Z,145
2019-04-16T08:02:55.828Z,140
2019-04-16T08:03:50.569Z,140
2019-04-16T08:04:50.420Z,135
2019-04-16T08:05:52.162Z,135
2019-04-16T08:06:54.592Z,135
2019-04-16T08:07:55.160Z,130
2019-04-16T08:08:50.487Z,130
2019-04-16T08:16:46.533Z,125
2019-04-16T08:16:58.822Z,110
2019-04-16T08:17:59.524Z,110
2019-04-16T08:18:58.364Z,105
2019-04-16T08:20:03.206Z,105
2019-04-16T08:21:22.078Z,100
2019-04-16T08:21:58.492Z,100
2019-04-16T08:22:58.688Z,100
2019-04-16T08:24:02.537Z,95
2019-04-16T08:25:06.474Z,95
2019-04-16T08:26:17.167Z,95
2019-04-16T08:26:58.677Z,95
2019-04-16T08:28:02.123Z,95
2019-04-16T08:28:58.414Z,95
2019-04-16T08:30:02.086Z,95
2019-04-16T08:30:58.370Z,95
2019-04-16T08:31:58.367Z,90
2019-04-16T08:32:59.744Z,90
2019-04-16T08:33:58.440Z,90
2019-04-16T08:34:58.366Z,90
2019-04-16T08:35:58.376Z,90
2019-04-16T08:36:58.447Z,90
2019-04-16T08:38:03.752Z,90
2019-04-16T08:38:58.846Z,90
2019-04-16T08:40:08.734Z,85
2019-04-16T08:40:58.365Z,85
2019-04-16T08:42:02.877Z,85
2019-04-16T08:43:02.715Z,85
2019-04-16T08:43:59.643Z,85
2019-04-16T08:44:58.779Z,85
2019-04-16T08:45:58.377Z,85
2019-04-16T08:47:01.575Z,85
2019-04-16T08:47:58.451Z,85
2019-04-16T08:49:02.590Z,85
2019-04-16T08:50:04.300Z,85
2019-04-16T08:51:07.277Z,85
2019-04-16T08:51:58.500Z,85
2019-04-16T08:52:58.581Z,85
2019-04-16T08:53:58.570Z,85
2019-04-16T08:55:04.066Z,85
2019-04-16T08:55:58.727Z,85
2019-04-16T08:56:58.809Z,80
2019-04-16T08:57:59.848Z,80
2019-04-16T08:59:09.424Z,85
2019-04-16T08:59:58.470Z,80
2019-04-16T09:00:58.611Z,80
2019-04-16T09:02:01.917Z,85
2019-04-16T09:03:03.529Z,85
2019-04-16T09:04:03.796Z,80
2019-04-16T09:04:58.453Z,80
2019-04-16T09:05:58.488Z,80
2019-04-16T09:07:13.455Z,80
2019-04-16T09:08:14.847Z,80
2019-04-16T09:09:24.269Z,80
2019-04-16T09:10:29.907Z,85
2019-04-16T09:11:00.205Z,85
2019-04-16T09:11:59.322Z,85
2019-04-16T09:13:15.156Z,85
2019-04-16T09:13:58.923Z,85
2019-04-16T09:15:03.250Z,85
2019-04-16T09:15:58.713Z,85
2019-04-16T09:16:58.472Z,85
2019-04-16T09:17:58.452Z,85
2019-04-16T09:18:58.471Z,85
2019-04-16T09:20:01.280Z,85
2019-04-16T09:20:59.769Z,85
2019-04-16T09:21:58.467Z,85
2019-04-16T09:23:04.623Z,90
2019-04-16T09:24:11.957Z,85
2019-04-16T09:24:58.540Z,85
2019-04-16T09:26:11.691Z,85
2019-04-16T09:27:03.366Z,85
2019-04-16T09:28:00.701Z,85
2019-04-16T09:29:00.527Z,85
2019-04-16T09:29:59.312Z,85
2019-04-16T09:31:01.080Z,85
2019-04-16T09:32:03.091Z,85
2019-04-16T09:33:03.534Z,85
2019-04-16T09:34:05.248Z,85
2019-04-16T09:35:18.284Z,85
2019-04-16T09:35:58.573Z,85
2019-04-16T09:36:58.610Z,85
2019-04-16T09:37:58.753Z,85
2019-04-16T09:38:59.066Z,85
2019-04-16T09:40:21.862Z,85
2019-04-16T09:40:59.975Z,85
2019-04-16T09:41:58.530Z,85
2019-04-16T09:42:58.674Z,85
2019-04-16T09:44:04.345Z,85
2019-04-16T09:45:01.666Z,85
2019-04-16T09:46:20.768Z,85
2019-04-16T09:47:10.562Z,85
2019-04-16T09:47:58.456Z,85
2019-04-16T09:49:00.514Z,85
2019-04-16T09:49:58.474Z,85
2019-04-16T09:50:58.813Z,85
2019-04-16T09:52:03.767Z,85
2019-04-16T09:53:04.576Z,85
2019-04-16T09:53:58.568Z,85
2019-04-16T09:54:58.554Z,85
2019-04-16T09:56:01.061Z,85
2019-04-16T09:57:00.609Z,85
2019-04-16T09:57:58.490Z,85
2019-04-16T09:58:58.560Z,85
2019-04-16T09:59:58.869Z,85
2019-04-16T10:00:58.552Z,85
2019-04-16T10:01:58.519Z,85
2019-04-16T10:03:00.833Z,85
2019-04-16T10:04:01.558Z,85
2019-04-16T10:04:58.556Z,85
2019-04-16T10:05:58.583Z,85
2019-04-16T10:06:58.629Z,85
2019-04-16T10:07:59.699Z,85
2019-04-16T10:09:02.197Z,85
2019-04-16T10:10:07.777Z,85
2019-04-16T10:11:05.952Z,85
2019-04-16T10:12:00.077Z,85
2019-04-16T10:12:58.566Z,85
2019-04-16T10:13:58.651Z,85
2019-04-16T10:14:58.858Z,85
2019-04-16T10:16:00.881Z,85
2019-04-16T10:16:58.603Z,85
2019-04-16T10:18:02.325Z,85
2019-04-16T10:18:58.598Z,85
2019-04-16T10:19:58.727Z,85
2019-04-16T10:20:58.987Z,85
2019-04-16T10:22:03.847Z,85
2019-04-16T10:22:58.565Z,85
2019-04-16T10:23:58.571Z,85
2019-04-16T10:24:58.683Z,85
2019-04-16T10:25:58.636Z,85
2019-04-16T10:27:04.307Z,85
2019-04-16T10:27:58.600Z,85
2019-04-16T10:28:58.631Z,85
2019-04-16T10:29:58.719Z,85
2019-04-16T10:30:58.737Z,85
2019-04-16T10:31:58.625Z,85
2019-04-16T10:32:58.998Z,85
2019-04-16T10:33:58.582Z,85
2019-04-16T10:34:58.719Z,85
2019-04-16T10:36:00.958Z,85
2019-04-16T10:36:58.636Z,85
2019-04-16T10:37:58.622Z,85
2019-04-16T10:38:59.040Z,85
2019-04-16T10:40:10.063Z,85
2019-04-16T10:40:58.781Z,85
2019-04-16T10:42:01.598Z,85
2019-04-16T10:42:58.713Z,85
2019-04-16T10:43:58.801Z,85
2019-04-16T10:44:58.964Z,85
2019-04-16T10:45:58.668Z,85
2019-04-16T10:46:58.676Z,85
2019-04-16T10:47:58.625Z,85
2019-04-16T10:48:58.931Z,85
2019-04-16T10:49:58.820Z,85
2019-04-16T10:51:00.474Z,85
2019-04-16T10:51:59.093Z,85
2019-04-16T10:53:02.570Z,85
2019-04-16T10:53:58.809Z,85
2019-04-16T10:54:59.035Z,85
2019-04-16T10:55:58.685Z,85
2019-04-16T10:57:02.658Z,85
2019-04-16T10:57:58.677Z,85
2019-04-16T10:58:58.761Z,85
2019-04-16T10:59:59.050Z,85
2019-04-16T11:00:58.803Z,85
2019-04-16T11:01:58.699Z,85
2019-04-16T11:05:06.474Z,85
2019-04-16T11:05:23.852Z,85
2019-04-16T11:06:17.505Z,85
2019-04-16T11:07:17.587Z,85
2019-04-16T11:08:18.949Z,80
2019-04-16T11:09:17.907Z,80
2019-04-16T11:10:19.807Z,80
2019-04-16T11:11:17.552Z,85
2019-04-16T11:12:19.718Z,80
2019-04-16T11:13:17.634Z,80
2019-04-16T11:14:17.581Z,80
2019-04-16T11:15:17.552Z,80
2019-04-16T11:16:17.528Z,80
2019-04-16T11:17:17.559Z,80
2019-04-16T11:18:17.846Z,80
2019-04-16T11:19:17.713Z,80
2019-04-16T11:20:18.060Z,80
2019-04-16T11:21:17.612Z,80
2019-04-16T11:22:17.839Z,80
2019-04-16T11:23:19.042Z,80
2019-04-16T11:24:20.548Z,80
2019-04-16T11:25:17.874Z,80
2019-04-16T11:26:17.873Z,80
2019-04-16T11:27:17.777Z,80
2019-04-16T11:28:19.624Z,80
2019-04-16T11:29:17.645Z,80
2019-04-16T11:30:17.674Z,80
2019-04-16T11:31:18.005Z,80
2019-04-16T11:32:18.008Z,80
2019-04-16T11:33:17.697Z,80
2019-04-16T11:34:17.889Z,80
2019-04-16T11:35:25.739Z,80
2019-04-16T11:36:33.406Z,80
2019-04-16T11:37:20.035Z,80
2019-04-16T11:38:20.278Z,85
2019-04-16T11:39:18.096Z,80
2019-04-16T11:40:17.934Z,80
2019-04-16T11:41:17.783Z,80
2019-04-16T11:42:17.896Z,85
2019-04-16T11:43:17.863Z,80
2019-04-16T11:44:26.845Z,80
2019-04-16T11:45:17.928Z,75
2019-04-16T11:46:17.794Z,80
2019-04-16T11:47:17.797Z,80
2019-04-16T11:48:17.672Z,75
2019-04-16T11:49:17.801Z,75
2019-04-16T11:50:18.186Z,75
2019-04-16T11:55:34.992Z,75
2019-04-16T11:55:46.547Z,75
2019-04-16T12:01:03.878Z,75
2019-04-16T12:01:15.579Z,75
2019-04-16T12:02:15.358Z,75
2019-04-16T12:03:15.396Z,75
2019-04-16T12:04:19.835Z,75
2019-04-16T12:05:15.201Z,75
2019-04-16T12:06:30.350Z,75
2019-04-16T12:07:16.894Z,75
2019-04-16T12:08:15.036Z,75
2019-04-16T12:09:15.211Z,75
2019-04-16T12:10:15.139Z,75
2019-04-16T12:11:15.100Z,75
2019-04-16T12:12:15.397Z,75
2019-04-16T12:13:15.370Z,75
2019-04-16T12:14:41.828Z,75
2019-04-16T12:15:14.928Z,75
2019-04-16T12:16:15.139Z,75
2019-04-16T12:17:15.123Z,75
2019-04-16T12:18:15.643Z,75
2019-04-16T12:19:15.081Z,75
2019-04-16T12:20:15.266Z,75
2019-04-16T12:21:15.357Z,75
2019-04-16T12:22:15.237Z,70
2019-04-16T12:23:15.342Z,70
2019-04-16T12:24:18.456Z,70
2019-04-16T12:25:15.610Z,75
2019-04-16T12:26:17.617Z,75
2019-04-16T12:27:15.184Z,75
2019-04-16T12:28:20.607Z,75
2019-04-16T12:29:15.832Z,70
2019-04-16T12:30:15.410Z,70
2019-04-16T12:31:18.830Z,70
2019-04-16T12:32:16.346Z,75
2019-04-16T12:33:21.791Z,75
2019-04-16T12:34:15.316Z,70
2019-04-16T12:35:15.376Z,70
2019-04-16T12:36:18.893Z,70
2019-04-16T12:37:15.447Z,70
2019-04-16T12:38:24.022Z,70
2019-04-16T12:39:18.316Z,70
2019-04-16T12:40:18.553Z,70
2019-04-16T12:41:15.401Z,70
2019-04-16T12:42:15.492Z,70
2019-04-16T12:43:20.377Z,70
2019-04-16T12:44:15.386Z,70
2019-04-16T12:45:17.407Z,70
2019-04-16T12:46:15.404Z,70
2019-04-16T12:47:15.249Z,70
2019-04-16T12:48:15.502Z,70
2019-04-16T12:49:15.091Z,70
2019-04-16T12:50:17.031Z,70
2019-04-16T12:51:15.379Z,70
2019-04-16T12:52:24.882Z,70
2019-04-16T12:53:15.302Z,70
2019-04-16T12:54:16.063Z,70
2019-04-16T12:55:15.381Z,70
2019-04-16T12:56:18.898Z,70
2019-04-16T12:57:21.967Z,70
2019-04-16T12:58:18.850Z,70
2019-04-16T12:59:15.193Z,70
2019-04-16T13:00:15.466Z,70
2019-04-16T13:01:15.663Z,70
2019-04-16T13:02:20.293Z,70
2019-04-16T13:03:19.296Z,70
2019-04-16T13:04:15.045Z,70
2019-04-16T13:05:15.406Z,70
2019-04-16T13:06:15.344Z,70
2019-04-16T13:07:15.068Z,70
2019-04-16T13:08:15.585Z,70
2019-04-16T13:09:15.020Z,70
2019-04-16T13:10:15.085Z,70
2019-04-16T13:11:18.532Z,70
2019-04-16T13:12:19.400Z,70
2019-04-16T13:13:15.186Z,70
2019-04-16T13:14:15.291Z,70
2019-04-16T13:15:15.336Z,70
2019-04-16T13:16:15.469Z,70
2019-04-16T13:17:20.823Z,70
2019-04-16T13:18:15.600Z,70
2019-04-16T13:19:15.550Z,70
2019-04-16T13:20:15.294Z,70
2019-04-16T13:21:16.337Z,70
2019-04-16T13:22:15.087Z,70
2019-04-16T13:23:15.101Z,70
2019-04-16T13:24:15.666Z,70
2019-04-16T13:25:15.512Z,70
2019-04-16T13:26:19.791Z,70
2019-04-16T13:27:15.388Z,70
2019-04-16T13:28:15.429Z,70
2019-04-16T13:29:19.177Z,70
2019-04-16T13:30:15.790Z,70
2019-04-16T13:31:15.349Z,70
2019-04-16T13:32:19.311Z,70
2019-04-16T13:33:15.538Z,65
2019-04-16T13:34:21.154Z,65
2019-04-16T13:35:15.313Z,65
2019-04-16T13:36:15.561Z,65
2019-04-16T13:37:15.452Z,65
2019-04-16T13:38:18.892Z,65
2019-04-16T13:39:15.134Z,65
2019-04-16T13:40:15.525Z,65
2019-04-16T13:41:15.281Z,65
2019-04-16T13:42:15.392Z,65
2019-04-16T13:43:17.094Z,65
2019-04-16T13:44:22.491Z,65
2019-04-16T13:45:33.741Z,65
2019-04-16T13:46:15.415Z,65
2019-04-16T13:47:15.385Z,65
2019-04-16T13:48:30.018Z,65
2019-04-16T13:49:15.194Z,65
2019-04-16T13:50:15.444Z,65
2019-04-16T13:51:24.199Z,65
2019-04-16T13:52:16.952Z,65
2019-04-16T13:53:15.117Z,65
2019-04-16T13:54:15.512Z,60
2019-04-16T13:55:19.167Z,60
2019-04-16T13:56:20.415Z,60
2019-04-16T13:57:15.103Z,60
2019-04-16T13:58:15.309Z,60
2019-04-16T13:59:15.214Z,60
2019-04-16T14:00:16.435Z,60
2019-04-16T14:01:19.737Z,60
2019-04-16T14:02:20.522Z,60
2019-04-16T14:03:15.143Z,55
2019-04-16T14:04:15.209Z,55
2019-04-16T14:05:19.207Z,55
2019-04-16T14:06:21.416Z,60
2019-04-16T14:07:15.271Z,55
2019-04-16T14:08:15.424Z,60
2019-04-16T14:09:15.464Z,60
2019-04-16T14:14:32.204Z,50
2019-04-16T14:14:43.258Z,55
2019-04-16T14:15:52.706Z,55
2019-04-16T14:16:48.733Z,55
2019-04-16T14:18:04.703Z,55
2019-04-16T14:18:43.858Z,55
2019-04-16T14:19:48.125Z,55
2019-04-16T14:20:43.342Z,55
2019-04-16T14:21:43.294Z,55
2019-04-16T14:22:43.314Z,55
2019-04-16T14:23:43.300Z,55
2019-04-16T14:24:43.374Z,50
2019-04-16T14:25:43.783Z,50
2019-04-16T14:26:43.321Z,55
2019-04-16T14:27:43.292Z,55
2019-04-16T14:29:05.509Z,55
2019-04-16T14:29:48.746Z,55
2019-04-16T14:30:46.047Z,55
2019-04-16T14:31:46.042Z,55
2019-04-16T14:32:43.283Z,50
2019-04-16T14:33:45.724Z,50
2019-04-16T14:34:43.337Z,50
2019-04-16T14:35:48.136Z,50
2019-04-16T14:36:43.368Z,50
2019-04-16T14:37:43.522Z,50
2019-04-16T14:38:43.235Z,50
2019-04-16T14:39:43.347Z,50
2019-04-16T14:40:45.704Z,50
2019-04-16T14:41:48.670Z,50
2019-04-16T14:42:43.338Z,50
2019-04-16T14:43:43.917Z,50
2019-04-16T14:44:45.629Z,50
2019-04-16T14:46:08.679Z,45
2019-04-16T14:46:43.300Z,40
2019-04-16T14:47:48.225Z,50
2019-04-16T14:48:51.862Z,50
2019-04-16T14:49:43.773Z,50
2019-04-16T14:50:43.799Z,50